Time;durP1;ratioP1;P1;durP2;ratioP2;P2;SDS_P1;SDS_P2;PMS_P1;PMS_P2;Temp;Humidity;BMP_temperature;BMP_pressure;BME280_temperature;BME280_humidity;BME280_pressure;Samples;Min_cycle;Max_cycle;Signal;HPM_P1;HPM_P2
2022/08/26 00:00:33;;;;;;;8.75;4.97;;;;;;;19.62;100.00;98381.78;5044943;28;20030;-58
2022/08/26 00:02:59;;;;;;;6.80;4.22;;;;;;;19.58;96.50;98383.44;5029370;28;20025;-57
2022/08/26 00:05:24;;;;;;;6.53;4.15;;;;;;;19.45;98.17;98382.88;5050749;28;20444;-57
2022/08/26 00:07:50;;;;;;;7.22;4.47;;;;;;;19.34;98.65;98380.38;5048244;28;20029;-57
2022/08/26 00:10:16;;;;;;;7.03;4.20;;;;;;;19.22;99.26;98383.34;5028712;28;20033;-61
2022/08/26 00:12:42;;;;;;;6.60;4.22;;;;;;;19.13;100.00;98379.50;5025150;28;20026;-63
2022/08/26 00:15:11;;;;;;;5.45;3.90;;;;;;;19.03;100.00;98375.63;5034552;28;20465;-60
2022/08/26 00:17:36;;;;;;;7.28;4.03;;;;;;;19.05;100.00;98380.84;5022850;28;20033;-57
2022/08/26 00:20:05;;;;;;;6.53;4.70;;;;;;;18.94;100.00;98385.47;5034830;28;20088;-57
2022/08/26 00:22:31;;;;;;;6.38;4.88;;;;;;;18.87;100.00;98382.16;5021305;28;20025;-57
2022/08/26 00:24:57;;;;;;;6.85;5.20;;;;;;;18.88;100.00;98383.78;5023425;28;20049;-58
2022/08/26 00:27:22;;;;;;;9.38;5.55;;;;;;;18.87;100.00;98384.88;5047167;28;20032;-57
2022/08/26 00:29:47;;;;;;;6.13;4.63;;;;;;;18.87;100.00;98379.41;5022068;28;20029;-57
2022/08/26 00:32:13;;;;;;;7.38;5.05;;;;;;;18.92;100.00;98382.16;5023548;28;20034;-57
2022/08/26 00:34:38;;;;;;;8.95;4.70;;;;;;;18.92;100.00;98378.59;5027040;28;20033;-57
2022/08/26 00:37:04;;;;;;;7.20;4.50;;;;;;;18.89;100.00;98385.44;5028551;28;20381;-56
2022/08/26 00:39:30;;;;;;;6.78;4.93;;;;;;;18.92;100.00;98384.91;5024215;28;20044;-57
2022/08/26 00:41:56;;;;;;;7.65;4.50;;;;;;;18.90;100.00;98383.53;5024839;28;20026;-57
2022/08/26 00:44:21;;;;;;;7.40;4.93;;;;;;;18.95;100.00;98378.06;5041522;28;20033;-56
2022/08/26 00:46:53;;;;;;;7.43;4.82;;;;;;;18.94;100.00;98388.22;5016759;28;20045;-57
2022/08/26 00:49:27;;;;;;;8.23;5.38;;;;;;;18.97;100.00;98384.94;5038776;28;20021;-57
2022/08/26 00:51:55;;;;;;;8.80;5.20;;;;;;;18.96;100.00;98383.25;5043932;28;20116;-57
2022/08/26 00:54:24;;;;;;;6.40;4.78;;;;;;;19.01;100.00;98383.28;5026967;28;20125;-56
2022/08/26 00:56:53;;;;;;;8.73;5.10;;;;;;;18.97;100.00;98386.84;5022610;28;20033;-57
2022/08/26 00:59:19;;;;;;;6.28;4.55;;;;;;;18.90;100.00;98376.13;5018661;28;20021;-57
2022/08/26 01:01:45;;;;;;;8.25;4.47;;;;;;;18.86;100.00;98385.13;5020274;28;20051;-57
2022/08/26 01:04:13;;;;;;;8.02;5.00;;;;;;;18.79;100.00;98379.91;5041604;28;20021;-57
2022/08/26 01:06:40;;;;;;;8.15;4.97;;;;;;;18.77;100.00;98379.34;5024547;28;20034;-57
2022/08/26 01:09:06;;;;;;;7.72;4.90;;;;;;;18.71;100.00;98380.41;5035564;28;20095;-61
2022/08/26 01:11:33;;;;;;;6.38;4.80;;;;;;;18.65;100.00;98384.19;5027801;28;20032;-58
2022/08/26 01:14:01;;;;;;;8.07;4.82;;;;;;;18.62;100.00;98385.53;5020523;28;20053;-56
2022/08/26 01:16:27;;;;;;;7.68;5.53;;;;;;;18.59;100.00;98381.41;5020345;28;20489;-57
2022/08/26 01:19:01;;;;;;;7.20;4.95;;;;;;;18.50;100.00;98382.22;5023691;28;20084;-57
2022/08/26 01:21:38;;;;;;;7.53;5.22;;;;;;;18.43;100.00;98376.13;5043431;28;20045;-57
2022/08/26 01:24:04;;;;;;;6.25;4.93;;;;;;;18.48;100.00;98379.72;5025729;28;20063;-57
2022/08/26 01:26:34;;;;;;;7.20;4.90;;;;;;;18.58;100.00;98374.31;5017399;28;20414;-57
2022/08/26 01:29:04;;;;;;;8.68;5.90;;;;;;;18.56;100.00;98368.25;5027092;28;20025;-57
2022/08/26 01:31:37;;;;;;;7.03;4.82;;;;;;;18.60;100.00;98376.75;5028573;28;20021;-57
2022/08/26 01:34:13;;;;;;;8.43;5.18;;;;;;;18.63;100.00;98376.25;5025223;28;20083;-56
2022/08/26 01:36:40;;;;;;;7.53;5.55;;;;;;;18.55;100.00;98369.38;5033966;28;20041;-57
2022/08/26 01:39:06;;;;;;;7.40;4.60;;;;;;;18.46;100.00;98383.81;5023616;28;20394;-57
2022/08/26 01:41:32;;;;;;;7.80;4.80;;;;;;;18.41;100.00;98384.59;5019377;28;20128;-57
2022/08/26 01:43:59;;;;;;;7.97;5.30;;;;;;;18.37;100.00;98388.97;5023566;28;20120;-57
2022/08/26 01:46:27;;;;;;;8.25;5.45;;;;;;;18.22;100.00;98386.94;5027426;28;20661;-57
2022/08/26 01:48:54;;;;;;;9.57;5.95;;;;;;;18.04;100.00;98393.66;5039879;28;20425;-56
2022/08/26 01:51:22;;;;;;;8.80;5.90;;;;;;;17.94;100.00;98391.66;5027297;28;20025;-57
2022/08/26 01:53:48;;;;;;;7.23;5.30;;;;;;;17.93;100.00;98391.94;5033628;28;20053;-57
2022/08/26 01:56:14;;;;;;;8.00;5.18;;;;;;;18.09;100.00;98392.88;5026507;28;20033;-62
2022/08/26 01:58:51;;;;;;;7.97;5.55;;;;;;;18.04;100.00;98390.94;5028447;28;20025;-57
2022/08/26 02:01:17;;;;;;;10.50;5.70;;;;;;;17.92;100.00;98393.84;5023754;28;21221;-57
2022/08/26 02:04:09;;;;;;;9.85;5.70;;;;;;;17.79;100.00;98391.56;5016943;28;20021;-57
2022/08/26 02:06:37;;;;;;;11.98;6.15;;;;;;;17.80;100.00;98398.66;5015256;28;20028;-57
2022/08/26 02:09:04;;;;;;;10.63;6.03;;;;;;;17.83;100.00;98394.59;5019882;28;20033;-57
2022/08/26 02:11:32;;;;;;;6.97;5.35;;;;;;;17.98;100.00;98397.47;5028159;28;20029;-56
2022/08/26 02:14:02;;;;;;;9.20;6.05;;;;;;;18.06;100.00;98393.41;5026441;28;20030;-58
2022/08/26 02:16:32;;;;;;;7.10;5.75;;;;;;;18.09;100.00;98388.22;5021861;28;20026;-57
2022/08/26 02:19:00;;;;;;;11.60;5.60;;;;;;;18.04;100.00;98398.31;5013964;28;20413;-57
2022/08/26 02:21:26;;;;;;;12.80;5.45;;;;;;;17.91;100.00;98392.19;5020691;28;20037;-57
2022/08/26 02:23:51;;;;;;;8.15;5.88;;;;;;;17.89;100.00;98401.75;5023861;28;20028;-57
2022/08/26 02:26:22;;;;;;;11.68;5.95;;;;;;;17.84;100.00;98396.22;5024821;28;20028;-57
2022/08/26 02:28:57;;;;;;;9.32;5.45;;;;;;;17.83;100.00;98405.53;5022927;28;20080;-57
2022/08/26 02:31:23;;;;;;;7.65;5.30;;;;;;;17.86;100.00;98405.81;5042166;28;20034;-57
2022/08/26 02:33:49;;;;;;;9.02;6.07;;;;;;;17.86;100.00;98399.53;5037518;28;20038;-57
2022/08/26 02:36:20;;;;;;;8.85;5.60;;;;;;;17.83;100.00;98405.53;5039775;28;20400;-57
2022/08/26 02:38:46;;;;;;;9.52;6.20;;;;;;;17.83;100.00;98397.31;5017580;28;20025;-57
2022/08/26 02:41:11;;;;;;;12.45;6.07;;;;;;;17.84;100.00;98404.44;5029028;28;20038;-57
2022/08/26 02:43:36;;;;;;;8.75;6.22;;;;;;;17.87;100.00;98395.72;5023578;28;20431;-57
2022/08/26 02:46:02;;;;;;;9.07;5.88;;;;;;;17.82;100.00;98392.94;5043085;28;20025;-57
2022/08/26 02:48:27;;;;;;;8.02;5.95;;;;;;;17.75;100.00;98395.84;5030020;28;20412;-57
2022/08/26 02:50:52;;;;;;;12.88;5.97;;;;;;;17.70;100.00;98393.88;5030196;28;20033;-57
2022/08/26 02:53:19;;;;;;;11.80;5.97;;;;;;;17.70;100.00;98396.63;5022075;28;20113;-57
2022/08/26 02:55:48;;;;;;;9.73;6.15;;;;;;;17.64;100.00;98388.66;5048094;28;20017;-57
2022/08/26 02:58:15;;;;;;;8.90;5.80;;;;;;;17.60;100.00;98379.28;5032108;28;20022;-58
2022/08/26 03:00:40;;;;;;;7.45;5.30;;;;;;;17.62;100.00;98385.34;5029007;28;20037;-57
2022/08/26 03:03:06;;;;;;;10.32;5.60;;;;;;;17.68;100.00;98384.28;5043846;28;20028;-57
2022/08/26 03:05:33;;;;;;;9.77;5.70;;;;;;;17.78;100.00;98386.31;5019674;28;20033;-57
2022/08/26 03:07:59;;;;;;;12.68;6.07;;;;;;;17.73;100.00;98389.81;5029716;28;20477;-57
2022/08/26 03:10:27;;;;;;;11.65;6.53;;;;;;;17.65;100.00;98390.28;5028342;28;20071;-57
2022/08/26 03:12:53;;;;;;;10.10;5.95;;;;;;;17.64;100.00;98385.91;5040825;28;20492;-57
2022/08/26 03:15:19;;;;;;;9.25;6.30;;;;;;;17.69;100.00;98388.69;5026522;28;20037;-57
2022/08/26 03:17:46;;;;;;;12.98;6.50;;;;;;;17.58;100.00;98382.31;5029689;28;20120;-57
2022/08/26 03:20:12;;;;;;;11.30;6.55;;;;;;;17.60;100.00;98382.03;5041343;28;20477;-57
2022/08/26 03:22:38;;;;;;;10.45;7.05;;;;;;;17.53;100.00;98385.00;5021598;28;20087;-57
2022/08/26 03:25:07;;;;;;;13.77;7.38;;;;;;;17.55;100.00;98385.53;5032180;28;20481;-57
2022/08/26 03:27:33;;;;;;;10.73;7.97;;;;;;;17.42;100.00;98378.59;5031056;28;20029;-57
2022/08/26 03:32:43;;;;;;;16.70;9.25;;;;;;;17.31;100.00;98376.81;5028471;28;20036;-57
2022/08/26 03:35:09;;;;;;;13.55;8.65;;;;;;;17.28;100.00;98375.44;5020934;28;20398;-57
2022/08/26 03:37:35;;;;;;;11.70;7.85;;;;;;;17.24;100.00;98373.50;5039990;28;20025;-57
2022/08/26 03:40:00;;;;;;;14.95;8.63;;;;;;;17.19;100.00;98373.44;5039558;28;20021;-57
2022/08/26 03:42:26;;;;;;;15.73;8.23;;;;;;;17.20;100.00;98375.06;5027472;28;20026;-57
2022/08/26 03:44:51;;;;;;;16.02;7.05;;;;;;;17.18;100.00;98374.50;5021455;28;20025;-58
2022/08/26 03:47:17;;;;;;;12.43;7.35;;;;;;;17.13;100.00;98378.00;5023846;28;20036;-57
2022/08/26 03:49:43;;;;;;;10.27;6.43;;;;;;;17.14;100.00;98373.38;5046604;28;20025;-58
2022/08/26 03:52:09;;;;;;;9.68;6.82;;;;;;;17.11;100.00;98374.72;5039583;28;20017;-57
2022/08/26 03:54:34;;;;;;;13.20;7.80;;;;;;;17.10;100.00;98370.31;5020704;28;20465;-58
2022/08/26 03:57:00;;;;;;;9.38;6.40;;;;;;;16.99;100.00;98379.47;5042200;28;20033;-57
2022/08/26 03:59:25;;;;;;;11.60;7.07;;;;;;;16.93;100.00;98375.06;5027224;28;20049;-57
2022/08/26 04:01:51;;;;;;;12.93;7.05;;;;;;;16.87;100.00;98379.59;5022808;28;20082;-57
2022/08/26 04:04:17;;;;;;;15.02;7.13;;;;;;;16.88;100.00;98383.19;5029035;28;20439;-57
2022/08/26 04:06:42;;;;;;;11.23;7.68;;;;;;;16.88;100.00;98383.19;5022087;28;20077;-57
2022/08/26 04:09:13;;;;;;;10.20;7.15;;;;;;;16.96;100.00;98383.56;5029640;28;20028;-57
2022/08/26 04:11:42;;;;;;;11.38;6.57;;;;;;;16.83;100.00;98375.75;5022786;28;20021;-61
2022/08/26 04:14:13;;;;;;;9.15;5.78;;;;;;;16.80;100.00;98379.81;5022525;28;20033;-61
2022/08/26 04:16:40;;;;;;;13.10;6.57;;;;;;;16.76;100.00;98377.81;5022637;28;20025;-61
2022/08/26 04:19:05;;;;;;;8.88;6.18;;;;;;;16.70;100.00;98381.56;5024002;28;20029;-61
2022/08/26 04:21:31;;;;;;;8.65;6.60;;;;;;;16.68;100.00;98373.59;5025448;28;20389;-61
2022/08/26 04:23:56;;;;;;;14.00;7.05;;;;;;;16.72;100.00;98379.41;5031416;28;20124;-61
2022/08/26 04:26:23;;;;;;;11.43;7.07;;;;;;;16.79;100.00;98382.78;5044490;28;20125;-61
2022/08/26 04:28:52;;;;;;;14.15;7.28;;;;;;;16.86;100.00;98386.16;5028299;28;20036;-61
2022/08/26 04:31:18;;;;;;;10.27;7.80;;;;;;;16.91;100.00;98382.66;5027220;28;20356;-61
2022/08/26 04:33:46;;;;;;;10.70;7.97;;;;;;;16.88;100.00;98384.00;5030876;28;20476;-61
2022/08/26 04:36:12;;;;;;;9.82;7.35;;;;;;;16.88;100.00;98385.91;5025281;28;20029;-61
2022/08/26 04:38:38;;;;;;;15.57;7.43;;;;;;;16.90;100.00;98387.31;5018591;28;20463;-61
2022/08/26 04:41:06;;;;;;;9.02;6.38;;;;;;;16.92;100.00;98381.56;5020991;28;20032;-61
2022/08/26 04:43:32;;;;;;;12.82;7.35;;;;;;;16.95;100.00;98381.91;5029776;28;20040;-61
2022/08/26 04:46:03;;;;;;;9.90;7.53;;;;;;;17.04;100.00;98385.00;5030247;28;20033;-61
2022/08/26 04:48:30;;;;;;;11.70;6.78;;;;;;;17.13;100.00;98372.53;5040744;22;20041;-54
2022/08/26 04:50:56;;;;;;;12.80;7.75;;;;;;;17.20;100.00;98381.38;5027310;28;20114;-54
2022/08/26 04:53:22;;;;;;;10.50;6.97;;;;;;;17.33;100.00;98382.06;5026569;28;20387;-54
2022/08/26 04:55:48;;;;;;;13.93;7.57;;;;;;;17.45;100.00;98386.28;5029764;28;20032;-54
2022/08/26 04:58:18;;;;;;;10.50;6.38;;;;;;;17.62;100.00;98382.59;5030037;28;20472;-54
2022/08/26 05:00:46;;;;;;;12.95;7.40;;;;;;;17.78;100.00;98381.66;5033347;28;20039;-54
2022/08/26 05:03:12;;;;;;;13.10;7.25;;;;;;;17.93;100.00;98381.00;5027504;28;20029;-54
2022/08/26 05:05:40;;;;;;;8.57;6.93;;;;;;;18.03;100.00;98378.34;5031951;28;20021;-54
2022/08/26 05:08:05;;;;;;;12.07;6.95;;;;;;;18.16;100.00;98379.81;5030854;28;20031;-54
2022/08/26 05:10:33;;;;;;;9.80;6.68;;;;;;;18.32;100.00;98383.47;5031717;28;20021;-54
2022/08/26 05:12:59;;;;;;;10.32;6.63;;;;;;;18.52;100.00;98382.75;5031056;28;20051;-54
2022/08/26 05:15:24;;;;;;;9.57;6.63;;;;;;;18.74;100.00;98382.59;5028347;28;20475;-54
2022/08/26 05:17:50;;;;;;;9.55;6.20;;;;;;;19.01;100.00;98388.75;5031865;28;20017;-54
2022/08/26 05:20:21;;;;;;;9.20;6.05;;;;;;;19.18;100.00;98395.97;5029543;28;20037;-54
2022/08/26 05:22:46;;;;;;;8.85;6.40;;;;;;;19.21;100.00;98390.75;5044577;28;20052;-54
2022/08/26 05:25:13;;;;;;;10.82;5.80;;;;;;;19.28;100.00;98387.75;5032429;28;20472;-54
2022/08/26 05:27:38;;;;;;;9.07;6.05;;;;;;;19.50;100.00;98390.28;5033830;28;20037;-54
2022/08/26 05:30:05;;;;;;;9.68;5.85;;;;;;;19.74;97.10;98393.38;5029724;28;20388;-54
2022/08/26 05:32:30;;;;;;;7.93;5.78;;;;;;;19.90;94.90;98400.50;5028763;28;20040;-54
2022/08/26 05:34:56;;;;;;;8.85;5.90;;;;;;;20.17;93.76;98393.91;5032909;28;20063;-54
2022/08/26 05:37:22;;;;;;;8.15;5.97;;;;;;;20.32;95.40;98387.56;5034062;28;20051;-54
2022/08/26 05:39:48;;;;;;;11.57;5.90;;;;;;;20.61;92.13;98398.00;5034101;28;20020;-54
2022/08/26 05:42:14;;;;;;;8.30;4.95;;;;;;;21.01;89.52;98397.88;5032956;28;20035;-54
2022/08/26 05:44:39;;;;;;;8.45;4.90;;;;;;;21.26;84.19;98387.84;5033424;28;20120;-54
2022/08/26 05:47:05;;;;;;;8.45;5.78;;;;;;;21.10;84.88;98392.59;5049912;28;20056;-54
2022/08/26 05:49:31;;;;;;;8.30;5.90;;;;;;;21.45;79.73;98401.78;5029958;28;20032;-54
2022/08/26 05:51:56;;;;;;;11.05;5.80;;;;;;;21.64;79.65;98399.19;5029940;28;20079;-55
2022/08/26 05:54:21;;;;;;;11.27;6.32;;;;;;;22.16;76.70;98402.38;5030503;28;20029;-54
2022/08/26 05:56:47;;;;;;;7.85;6.03;;;;;;;22.99;70.49;98401.31;5031994;28;20503;-54
2022/08/26 05:59:13;;;;;;;10.55;6.40;;;;;;;23.49;68.04;98403.69;5032945;28;20025;-55
2022/08/26 06:01:39;;;;;;;12.60;6.40;;;;;;;23.72;66.28;98402.00;5029247;28;20029;-54
2022/08/26 06:04:06;;;;;;;9.30;6.63;;;;;;;23.81;65.98;98411.25;5025928;28;20536;-54
2022/08/26 06:06:34;;;;;;;11.57;6.32;;;;;;;23.56;67.83;98409.66;5042029;28;20431;-54
2022/08/26 06:09:01;;;;;;;14.65;6.45;;;;;;;23.74;67.50;98410.81;5024113;28;20021;-54
2022/08/26 06:11:29;;;;;;;12.40;6.53;;;;;;;23.76;66.24;98409.41;5023630;28;20017;-54
2022/08/26 06:13:59;;;;;;;14.02;6.47;;;;;;;23.56;67.92;98409.66;5031668;28;20032;-54
2022/08/26 06:16:24;;;;;;;11.55;6.70;;;;;;;23.63;67.60;98415.63;5029506;28;20043;-54
2022/08/26 06:18:51;;;;;;;11.50;6.20;;;;;;;23.13;70.50;98420.72;5033111;28;20539;-54
2022/08/26 06:21:23;;;;;;;10.23;5.88;;;;;;;23.00;72.93;98416.72;5048888;28;20055;-54
2022/08/26 06:26:36;;;;;;;14.60;6.82;;;;;;;23.02;74.78;98420.03;5052057;28;20024;-55
2022/08/26 06:29:04;;;;;;;11.68;6.18;;;;;;;23.47;71.66;98426.06;5035604;28;20028;-54
2022/08/26 06:31:32;;;;;;;11.60;7.03;;;;;;;24.02;69.28;98425.56;5036732;28;20376;-54
2022/08/26 06:33:57;;;;;;;14.43;7.15;;;;;;;24.99;64.42;98417.50;5031320;28;20400;-54
2022/08/26 06:36:26;;;;;;;14.00;6.72;;;;;;;25.69;59.55;98419.06;5037219;28;20024;-54
2022/08/26 06:38:54;;;;;;;11.32;6.25;;;;;;;26.78;57.01;98419.72;5034148;28;20021;-54
2022/08/26 06:41:21;;;;;;;8.52;6.13;;;;;;;27.51;54.68;98416.56;5052707;28;20084;-54
2022/08/26 06:43:47;;;;;;;12.90;6.68;;;;;;;27.78;53.05;98417.38;5034536;28;20106;-54
2022/08/26 06:46:15;;;;;;;13.20;6.05;;;;;;;28.38;51.20;98413.78;5030820;28;20036;-54
2022/08/26 06:48:42;;;;;;;11.43;5.83;;;;;;;29.33;48.80;98417.38;5051669;28;20083;-54
2022/08/26 06:51:09;;;;;;;11.43;6.07;;;;;;;29.77;47.14;98424.34;5033063;28;20036;-54
2022/08/26 06:53:36;;;;;;;11.05;6.40;;;;;;;29.22;49.01;98422.53;5033089;28;20460;-54
2022/08/26 06:56:04;;;;;;;10.77;6.05;;;;;;;27.45;53.06;98429.75;5034020;28;20415;-54
2022/08/26 06:58:31;;;;;;;11.52;6.32;;;;;;;27.08;54.56;98431.91;5050645;28;20025;-54
2022/08/26 07:00:56;;;;;;;12.65;6.45;;;;;;;27.01;54.98;98420.47;5023670;28;20049;-54
2022/08/26 07:03:22;;;;;;;12.43;6.75;;;;;;;28.28;51.85;98423.28;5024324;28;20036;-54
2022/08/26 07:05:48;;;;;;;8.70;5.55;;;;;;;29.81;48.13;98419.69;5037523;28;20430;-54
2022/08/26 07:08:14;;;;;;;12.80;6.78;;;;;;;30.63;45.27;98418.28;5042684;28;20032;-54
2022/08/26 07:10:39;;;;;;;11.05;5.70;;;;;;;30.76;44.83;98415.19;5030467;28;20017;-54
2022/08/26 07:13:05;;;;;;;11.82;5.90;;;;;;;30.36;45.86;98415.78;5031539;28;20029;-55
2022/08/26 07:15:32;;;;;;;8.75;5.60;;;;;;;30.83;45.02;98422.22;5033757;28;20060;-55
2022/08/26 07:17:57;;;;;;;14.13;6.60;;;;;;;32.52;41.73;98415.09;5032644;28;20058;-54
2022/08/26 07:20:23;;;;;;;13.98;6.00;;;;;;;33.72;39.51;98417.66;5032929;28;20444;-55
2022/08/26 07:22:48;;;;;;;13.60;5.85;;;;;;;35.09;37.33;98413.59;5026918;28;20031;-55
2022/08/26 07:25:13;;;;;;;12.52;5.85;;;;;;;36.10;35.84;98418.72;5028102;28;20040;-55
2022/08/26 07:27:39;;;;;;;14.00;5.15;;;;;;;36.13;35.35;98413.13;5035812;28;20025;-55
2022/08/26 07:30:05;;;;;;;12.88;6.15;;;;;;;35.97;35.90;98418.94;5032350;28;20453;-57
2022/08/26 07:32:31;;;;;;;11.65;6.22;;;;;;;35.18;36.54;98413.31;5035974;28;20025;-55
2022/08/26 07:34:57;;;;;;;16.70;6.57;;;;;;;34.47;37.60;98420.06;5031893;28;20086;-56
2022/08/26 07:37:23;;;;;;;13.30;5.93;;;;;;;35.76;35.61;98424.25;5031086;28;20036;-56
2022/08/26 07:39:48;;;;;;;12.27;5.70;;;;;;;36.77;34.15;98415.88;5033616;28;20127;-56
2022/08/26 07:42:16;;;;;;;11.52;6.32;;;;;;;37.28;33.91;98419.94;5031063;28;20037;-56
2022/08/26 07:44:42;;;;;;;13.87;6.00;;;;;;;36.47;34.70;98413.09;5035898;28;20082;-56
2022/08/26 07:47:08;;;;;;;11.27;6.05;;;;;;;37.39;33.50;98425.66;5037309;28;20416;-56
2022/08/26 07:49:34;;;;;;;12.82;5.68;;;;;;;38.01;32.70;98417.22;5034762;28;20024;-57
2022/08/26 07:52:01;;;;;;;12.38;5.75;;;;;;;38.17;31.72;98418.91;5028641;28;20043;-57
2022/08/26 07:54:27;;;;;;;10.50;6.03;;;;;;;38.07;31.63;98421.31;5025118;28;20139;-57
2022/08/26 07:56:53;;;;;;;18.08;5.93;;;;;;;38.82;31.40;98423.53;5030816;28;20064;-54
2022/08/26 07:59:18;;;;;;;12.85;5.68;;;;;;;38.18;31.99;98424.16;5033496;28;20013;-54
2022/08/26 08:01:44;;;;;;;18.30;5.63;;;;;;;37.86;33.10;98416.34;5034812;28;20033;-53
2022/08/26 08:04:13;;;;;;;15.70;6.00;;;;;;;38.69;31.45;98419.47;5033834;28;20028;-54
2022/08/26 08:06:38;;;;;;;12.73;5.35;;;;;;;38.08;32.08;98411.59;5029114;28;20029;-54
2022/08/26 08:09:05;;;;;;;16.60;6.63;;;;;;;38.47;31.86;98416.63;5025850;28;20016;-54
2022/08/26 08:11:31;;;;;;;12.45;5.60;;;;;;;38.93;30.79;98407.41;5022006;28;20068;-54
2022/08/26 08:13:59;;;;;;;14.00;5.55;;;;;;;37.70;32.38;98413.00;5029147;28;20114;-54
2022/08/26 08:16:27;;;;;;;9.68;4.93;;;;;;;38.36;31.61;98412.94;5025559;28;20162;-54
2022/08/26 08:18:52;;;;;;;13.20;5.23;;;;;;;39.40;30.39;98408.22;5043330;28;20390;-54
2022/08/26 08:21:18;;;;;;;16.23;5.85;;;;;;;39.02;30.28;98412.69;5028805;28;20759;-59
2022/08/26 08:23:44;;;;;;;14.82;5.57;;;;;;;38.89;31.37;98409.44;5020550;28;20086;-58
2022/08/26 08:26:09;;;;;;;14.18;5.07;;;;;;;38.18;31.89;98414.88;5025430;28;20488;-58
2022/08/26 08:28:38;;;;;;;12.95;5.28;;;;;;;40.09;29.26;98406.06;5033115;28;20387;-58
2022/08/26 08:31:04;;;;;;;14.02;5.30;;;;;;;40.26;29.08;98410.84;5034113;28;20028;-58
2022/08/26 08:33:33;;;;;;;7.25;5.15;;;;;;;37.76;31.71;98422.72;5033532;28;20060;-58
2022/08/26 08:35:59;;;;;;;15.10;5.72;;;;;;;39.16;30.76;98403.38;5033128;28;20372;-57
2022/08/26 08:38:26;;;;;;;11.68;5.18;;;;;;;41.21;28.22;98404.16;5030081;28;20031;-58
2022/08/26 08:40:52;;;;;;;8.52;5.30;;;;;;;40.80;28.28;98399.22;5030694;28;20094;-58
2022/08/26 08:43:43;;;;;;;14.82;4.75;;;;;;;40.94;28.25;98398.28;5032094;28;20021;-58
2022/08/26 08:46:15;;;;;;;16.58;4.85;;;;;;;41.07;28.58;98405.06;5019909;28;20461;-58
2022/08/26 08:48:55;;;;;;;10.13;4.82;;;;;;;41.29;27.37;98402.06;5025151;28;20048;-58
2022/08/26 08:51:57;;;;;;;13.57;5.10;;;;;;;40.30;28.23;98394.63;5030550;28;20021;-58
2022/08/26 08:54:25;;;;;;;16.73;5.65;;;;;;;39.58;29.98;98390.41;5025772;28;20025;-57
2022/08/26 08:57:00;;;;;;;9.50;4.97;;;;;;;40.26;28.68;98393.84;5031871;28;20032;-58
2022/08/26 08:59:34;;;;;;;13.07;4.97;;;;;;;41.65;27.92;98394.00;5031053;28;20037;-58
2022/08/26 09:02:04;;;;;;;9.00;4.72;;;;;;;41.99;26.85;98399.72;5032882;28;20029;-58
2022/08/26 09:04:51;;;;;;;12.02;4.63;;;;;;;42.64;26.36;98391.16;5031141;28;20115;-58
2022/08/26 09:07:24;;;;;;;8.52;4.10;;;;;;;42.03;26.61;98389.13;5033485;28;20025;-58
2022/08/26 09:10:16;;;;;;;15.65;4.30;;;;;;;42.66;26.05;98390.72;5028316;28;20032;-58
2022/08/26 09:12:42;;;;;;;14.93;5.00;;;;;;;42.24;26.25;98392.94;5033007;28;20021;-58
2022/08/26 09:15:17;;;;;;;13.18;4.43;;;;;;;43.99;24.98;98380.69;5028040;28;20025;-58
2022/08/26 09:17:58;;;;;;;12.65;4.57;;;;;;;42.63;25.70;98381.03;5035692;28;20025;-58
2022/08/26 09:20:32;;;;;;;10.40;4.28;;;;;;;43.25;25.57;98375.97;5029337;28;20028;-58
2022/08/26 09:22:58;;;;;;;9.50;4.32;;;;;;;43.27;25.54;98379.19;5024116;28;20384;-58
2022/08/26 09:25:23;;;;;;;10.52;4.47;;;;;;;43.66;25.50;98377.66;5023863;28;20116;-58
2022/08/26 09:27:51;;;;;;;7.63;4.75;;;;;;;42.62;26.11;98373.69;5031403;28;20032;-58
2022/08/26 09:30:31;;;;;;;13.07;4.95;;;;;;;42.62;25.97;98379.38;5048429;28;20025;-58
2022/08/26 09:33:00;;;;;;;12.93;4.75;;;;;;;42.77;25.69;98371.47;5033534;28;20052;-58
2022/08/26 09:35:34;;;;;;;19.13;4.70;;;;;;;44.36;24.28;98361.53;5032240;28;20147;-58
2022/08/26 09:38:00;;;;;;;11.65;4.82;;;;;;;44.65;24.28;98355.19;5029219;28;20082;-58
2022/08/26 09:40:34;;;;;;;11.23;4.82;;;;;;;45.02;23.60;98357.56;5032523;28;20021;-58
2022/08/26 09:43:20;;;;;;;8.30;4.20;;;;;;;43.83;25.12;98346.38;5031789;28;20110;-58
2022/08/26 09:45:55;;;;;;;7.65;4.10;;;;;;;44.53;24.47;98346.09;5030572;28;20033;-58
2022/08/26 09:48:40;;;;;;;10.23;4.43;;;;;;;44.44;24.32;98339.38;5030261;28;20029;-58
2022/08/26 09:51:27;;;;;;;10.90;4.35;;;;;;;43.26;24.86;98334.88;5040128;28;20032;-58
2022/08/26 09:54:01;;;;;;;15.23;4.25;;;;;;;43.80;24.83;98330.19;5032734;28;20052;-58
2022/08/26 09:56:34;;;;;;;10.65;4.28;;;;;;;45.09;24.13;98333.69;5034263;28;20060;-58
2022/08/26 09:59:02;;;;;;;12.02;3.92;;;;;;;44.97;23.60;98332.41;5035422;28;20460;-58
2022/08/26 10:01:35;;;;;;;13.77;3.90;;;;;;;43.12;25.13;98333.03;5035319;28;20037;-58
2022/08/26 10:04:25;;;;;;;14.02;4.50;;;;;;;41.42;26.93;98326.47;5035183;28;20024;-58
2022/08/26 10:07:06;;;;;;;13.02;4.13;;;;;;;38.00;31.38;98318.78;5034488;28;20422;-58
2022/08/26 10:09:39;;;;;;;10.45;4.15;;;;;;;34.90;35.27;98324.50;5034984;28;20012;-57
2022/08/26 10:12:24;;;;;;;10.48;4.05;;;;;;;33.43;37.25;98332.84;5036754;28;20056;-57
2022/08/26 10:14:56;;;;;;;8.02;3.88;;;;;;;32.14;38.90;98323.22;5039255;28;20024;-57
2022/08/26 10:17:38;;;;;;;11.75;4.28;;;;;;;31.70;39.27;98323.16;5030928;28;20049;-55
2022/08/26 10:20:27;;;;;;;7.72;3.40;;;;;;;31.16;39.88;98325.13;5035340;28;20055;-54
2022/08/26 10:22:59;;;;;;;14.93;4.55;;;;;;;30.92;40.31;98330.75;5036770;28;20033;-55
2022/08/26 10:25:46;;;;;;;7.85;3.83;;;;;;;30.61;41.44;98345.25;5032052;28;20039;-54
2022/08/26 10:28:26;;;;;;;12.13;4.47;;;;;;;30.20;41.55;98342.22;5028121;28;20102;-54
2022/08/26 10:31:00;;;;;;;8.20;3.35;;;;;;;29.75;41.31;98334.63;5030854;28;20040;-53
2022/08/26 10:33:25;;;;;;;5.43;3.20;;;;;;;29.40;41.48;98334.06;5045921;28;20032;-54
2022/08/26 10:35:55;;;;;;;6.97;3.40;;;;;;;29.25;41.76;98336.28;5031611;28;20044;-53
2022/08/26 10:38:29;;;;;;;7.75;3.22;;;;;;;28.83;43.34;98335.38;5028901;28;20476;-53
2022/08/26 10:41:10;;;;;;;9.52;3.42;;;;;;;28.48;46.15;98343.03;5033597;28;20021;-53
2022/08/26 10:43:54;;;;;;;12.45;4.30;;;;;;;27.84;49.87;98314.06;5032055;28;20120;-54
2022/08/26 10:46:23;;;;;;;11.45;4.38;;;;;;;27.98;51.16;98341.66;5033699;28;20036;-54
2022/08/26 10:49:03;;;;;;;13.82;4.88;;;;;;;27.26;53.82;98341.16;5030590;28;20029;-54
2022/08/26 10:51:35;;;;;;;10.77;4.63;;;;;;;27.00;55.61;98334.72;5033769;28;20460;-53
2022/08/26 10:54:08;;;;;;;16.52;4.97;;;;;;;26.69;58.42;98330.03;5025672;28;20028;-54
2022/08/26 10:57:15;;;;;;;10.95;5.05;;;;;;;26.57;60.10;98316.78;5034087;28;20120;-54
2022/08/26 11:03:24;;;;;;;12.65;4.38;;;;;;;26.50;62.35;98323.91;5032829;28;20170;-53
2022/08/26 11:06:20;;;;;;;16.30;4.97;;;;;;;26.41;64.67;98318.34;5024133;28;20028;-53
2022/08/26 11:08:56;;;;;;;12.88;5.28;;;;;;;26.30;65.03;98328.84;5031718;28;20036;-54
2022/08/26 11:11:40;;;;;;;9.88;4.85;;;;;;;26.31;64.73;98324.97;5039301;28;20133;-53
2022/08/26 11:14:18;;;;;;;17.50;4.60;;;;;;;26.50;63.30;98316.41;5029639;28;20078;-54
2022/08/26 11:16:47;;;;;;;10.52;4.57;;;;;;;26.32;62.98;98314.69;5034776;28;20029;-53
2022/08/26 11:19:34;;;;;;;18.33;5.57;;;;;;;26.32;63.27;98320.22;5034505;28;20040;-53
2022/08/26 11:22:24;;;;;;;16.33;4.97;;;;;;;25.64;68.75;98325.00;5027415;28;20037;-53
2022/08/26 11:24:56;;;;;;;12.43;5.03;;;;;;;25.50;70.76;98320.31;5044382;28;20083;-53
2022/08/26 11:27:24;;;;;;;10.18;4.72;;;;;;;25.31;73.20;98314.16;5039612;28;20054;-53
2022/08/26 11:29:58;;;;;;;13.48;5.28;;;;;;;25.34;72.98;98300.47;5027351;28;20041;-53
2022/08/26 11:32:47;;;;;;;11.50;4.70;;;;;;;25.47;71.50;98292.44;5028976;28;20029;-53
2022/08/26 11:35:22;;;;;;;13.82;4.93;;;;;;;25.63;69.84;98292.88;5028182;28;20106;-55
2022/08/26 11:37:55;;;;;;;14.02;5.20;;;;;;;25.82;68.67;98284.38;5030247;28;20040;-55
2022/08/26 11:40:37;;;;;;;8.55;4.45;;;;;;;26.07;66.59;98285.69;5028510;28;20021;-55
2022/08/26 11:43:07;;;;;;;10.43;4.90;;;;;;;26.06;66.02;98281.28;5025467;28;20084;-55